createdAt,value
2023-02-12T00:02:47.903Z,65.78
2023-02-12T00:06:50.941Z,65.88
2023-02-12T00:10:54.022Z,66.11
2023-02-12T00:14:58.397Z,66.04
2023-02-12T00:19:02.064Z,66.33
2023-02-12T00:23:05.085Z,66.14
2023-02-12T00:27:08.300Z,66.48
2023-02-12T00:31:15.447Z,66.30
2023-02-12T00:35:18.668Z,66.37
2023-02-12T00:39:21.639Z,66.52
2023-02-12T00:43:24.751Z,66.65
2023-02-12T00:47:29.140Z,67.05
2023-02-12T00:51:32.244Z,67.05
2023-02-12T00:55:35.736Z,67.16
2023-02-12T00:59:40.291Z,67.47
2023-02-12T01:03:44.676Z,67.45
2023-02-12T01:07:51.053Z,67.36
2023-02-12T01:11:54.017Z,67.66
2023-02-12T01:16:06.822Z,67.56
2023-02-12T01:20:14.935Z,68.06
2023-02-12T01:24:18.107Z,67.87
2023-02-12T01:28:21.374Z,67.93
2023-02-12T01:32:24.897Z,68.16
2023-02-12T01:36:31.139Z,68.05
2023-02-12T01:40:34.314Z,68.20
2023-02-12T01:44:38.992Z,68.26
2023-02-12T01:48:45.934Z,68.61
2023-02-12T01:52:55.331Z,68.44
2023-02-12T01:56:58.573Z,68.45
2023-02-12T02:01:03.676Z,68.55
2023-02-12T02:05:08.940Z,68.34
2023-02-12T02:09:13.935Z,68.31
2023-02-12T02:13:34.646Z,68.49
2023-02-12T02:17:52.979Z,69.58
2023-02-12T02:22:15.172Z,69.89
2023-02-12T02:26:35.213Z,70.05
2023-02-12T02:30:45.697Z,70.55
2023-02-12T02:34:53.975Z,70.94
2023-02-12T02:39:03.411Z,70.96
2023-02-12T02:43:10.697Z,71.06
2023-02-12T02:47:18.516Z,71.11
2023-02-12T02:51:25.131Z,71.16
2023-02-12T02:55:34.078Z,71.21
2023-02-12T02:59:42.173Z,71.14
2023-02-12T03:03:52.232Z,71.18
2023-02-12T03:08:00.279Z,71.53
2023-02-12T03:12:08.837Z,71.50
2023-02-12T03:16:19.016Z,71.49
2023-02-12T03:20:27.645Z,71.84
2023-02-12T03:24:37.283Z,71.59
2023-02-12T03:28:41.629Z,71.76
2023-02-12T03:32:53.805Z,71.76
2023-02-12T03:37:03.741Z,72.06
2023-02-12T03:41:11.253Z,72.28
2023-02-12T03:45:23.788Z,72.13
2023-02-12T03:49:32.110Z,72.31
2023-02-12T03:53:36.650Z,72.36
2023-02-12T03:57:44.155Z,72.65
2023-02-12T04:01:48.946Z,72.28
2023-02-12T04:05:51.999Z,72.63
2023-02-12T04:09:56.517Z,72.33
2023-02-12T04:14:15.290Z,72.56
2023-02-12T04:18:24.191Z,72.88
2023-02-12T04:22:37.984Z,72.73
2023-02-12T04:26:50.996Z,72.92
2023-02-12T04:31:00.442Z,72.99
2023-02-12T04:35:13.750Z,73.25
2023-02-12T04:39:22.958Z,73.32
2023-02-12T04:43:34.711Z,73.42
2023-02-12T04:47:39.125Z,73.14
2023-02-12T04:51:42.213Z,73.52
2023-02-12T04:55:45.687Z,73.66
2023-02-12T04:59:50.117Z,73.82
2023-02-12T05:03:53.568Z,73.56
2023-02-12T05:07:56.683Z,73.53
2023-02-12T05:11:59.702Z,73.89
2023-02-12T05:16:07.584Z,73.87
2023-02-12T05:20:12.257Z,73.79
2023-02-12T05:24:15.525Z,73.72
2023-02-12T05:28:18.737Z,73.97
2023-02-12T05:32:23.553Z,74.01
2023-02-12T05:36:27.054Z,74.14
2023-02-12T05:40:30.317Z,74.12
2023-02-12T05:44:33.337Z,74.18
2023-02-12T05:48:38.066Z,74.19
2023-02-12T05:52:41.048Z,74.18
2023-02-12T05:56:45.591Z,74.45
2023-02-12T06:00:48.620Z,74.43
2023-02-12T06:04:53.204Z,74.40
2023-02-12T06:08:56.832Z,74.55
2023-02-12T06:12:59.918Z,74.66
2023-02-12T06:17:02.902Z,74.53
2023-02-12T06:21:07.605Z,74.82
2023-02-12T06:25:10.609Z,74.80
2023-02-12T06:29:14.436Z,74.63
2023-02-12T06:33:17.670Z,74.73
2023-02-12T06:37:22.133Z,74.78
2023-02-12T06:41:25.592Z,74.97
2023-02-12T06:45:28.832Z,74.94
2023-02-12T06:49:32.051Z,74.97
2023-02-12T06:53:36.733Z,74.74
2023-02-12T06:57:39.800Z,74.76
2023-02-12T07:01:43.192Z,74.82
2023-02-12T07:05:46.229Z,74.68
2023-02-12T07:09:50.746Z,74.88
2023-02-12T07:13:53.914Z,74.99
2023-02-12T07:17:57.189Z,75.24
2023-02-12T07:22:00.186Z,74.91
2023-02-12T07:26:06.420Z,74.80
2023-02-12T07:30:10.593Z,74.97
2023-02-12T07:34:13.882Z,74.98
2023-02-12T07:38:16.847Z,75.09
2023-02-12T07:42:21.308Z,74.80
2023-02-12T07:46:29.794Z,74.80
2023-02-12T07:50:32.888Z,74.99
2023-02-12T07:54:35.905Z,74.74
2023-02-12T07:58:42.330Z,74.79
2023-02-12T08:02:45.401Z,74.94
2023-02-12T08:06:50.636Z,74.71
2023-02-12T08:10:56.718Z,74.96
2023-02-12T08:15:01.207Z,74.90
2023-02-12T08:19:16.609Z,74.59
2023-02-12T08:23:22.007Z,74.61
2023-02-12T08:27:24.965Z,74.50
2023-02-12T08:31:31.749Z,74.50
2023-02-12T08:35:34.948Z,74.34
2023-02-12T08:39:38.083Z,74.38
2023-02-12T08:43:42.245Z,74.18
2023-02-12T08:47:49.383Z,74.07
2023-02-12T08:51:55.139Z,73.98
2023-02-12T08:55:58.271Z,73.89
2023-02-12T09:00:01.333Z,74.01
2023-02-12T09:04:06.582Z,73.31
2023-02-12T09:08:10.278Z,73.22
2023-02-12T09:12:13.430Z,72.50
2023-02-12T09:16:16.486Z,72.55
2023-02-12T09:20:21.178Z,72.52
2023-02-12T09:24:24.299Z,72.48
2023-02-12T09:28:27.633Z,71.92
2023-02-12T09:32:31.069Z,71.79
2023-02-12T09:36:36.164Z,71.33
2023-02-12T09:40:49.334Z,70.91
2023-02-12T09:45:01.371Z,71.15
2023-02-12T09:49:11.420Z,71.25
2023-02-12T09:53:19.317Z,70.70
2023-02-12T09:57:29.426Z,71.11
2023-02-12T10:01:32.566Z,70.69
2023-02-12T10:05:41.636Z,70.45
2023-02-12T10:10:06.285Z,70.10
2023-02-12T10:14:30.733Z,69.86
2023-02-12T10:19:02.531Z,70.09
2023-02-12T10:23:22.291Z,70.10
2023-02-12T10:27:38.117Z,70.04
2023-02-12T10:31:44.800Z,69.54
2023-02-12T10:35:53.094Z,69.63
2023-02-12T10:40:02.134Z,69.33
2023-02-12T10:44:07.082Z,69.13
2023-02-12T10:48:15.408Z,69.05
2023-02-12T10:52:31.239Z,68.96
2023-02-12T10:56:38.246Z,68.41
2023-02-12T11:00:42.959Z,68.13
2023-02-12T11:04:46.017Z,68.18
2023-02-12T11:08:49.639Z,68.90
2023-02-12T11:12:52.705Z,68.11
2023-02-12T11:16:59.157Z,67.82
2023-02-12T11:21:06.751Z,67.79
2023-02-12T11:25:17.508Z,67.23
2023-02-12T11:29:23.602Z,67.73
2023-02-12T11:33:31.671Z,67.11
2023-02-12T11:37:37.127Z,67.33
2023-02-12T11:41:42.692Z,67.25
2023-02-12T11:45:49.870Z,66.38
2023-02-12T11:49:58.256Z,65.62
2023-02-12T12:04:34.476Z,65.02
2023-02-12T12:08:45.317Z,65.43
2023-02-12T12:12:53.326Z,65.46
2023-02-12T12:17:21.726Z,64.93
2023-02-12T12:21:32.260Z,65.71
2023-02-12T12:25:43.160Z,64.83
2023-02-12T12:29:54.053Z,64.48
2023-02-12T12:34:05.154Z,65.08
2023-02-12T12:38:22.465Z,65.15
2023-02-12T12:43:10.940Z,65.33
2023-02-12T12:47:25.532Z,64.60
2023-02-12T12:51:43.668Z,65.21
2023-02-12T12:56:08.674Z,65.63
2023-02-12T13:00:28.580Z,65.20
2023-02-12T13:04:52.188Z,64.94
2023-02-12T13:09:16.876Z,65.52
2023-02-12T13:13:30.175Z,65.36
2023-02-12T13:17:41.428Z,64.52
2023-02-12T13:21:56.429Z,64.35
2023-02-12T13:26:09.232Z,64.34
2023-02-12T13:30:23.483Z,63.76
2023-02-12T13:34:30.679Z,63.38
2023-02-12T13:38:40.037Z,62.29
2023-02-12T13:42:52.730Z,62.11
2023-02-12T13:47:08.115Z,62.88
2023-02-12T13:51:22.626Z,63.33
2023-02-12T13:55:30.442Z,63.93
2023-02-12T13:59:45.154Z,64.07
2023-02-12T14:03:49.789Z,64.31
2023-02-12T14:07:55.170Z,64.21
2023-02-12T14:11:58.441Z,64.17
2023-02-12T14:16:20.841Z,64.43
2023-02-12T14:20:28.200Z,63.91
2023-02-12T14:24:53.328Z,64.51
2023-02-12T14:29:00.251Z,64.35
2023-02-12T14:33:23.239Z,64.53
2023-02-12T14:37:38.488Z,64.66
2023-02-12T14:41:44.653Z,64.52
2023-02-12T14:45:47.813Z,64.92
2023-02-12T14:49:56.047Z,64.75
2023-02-12T14:54:01.681Z,64.92
2023-02-12T14:58:15.369Z,64.27
2023-02-12T15:02:25.418Z,64.27
2023-02-12T15:06:39.481Z,64.29
2023-02-12T15:10:50.056Z,64.26
2023-02-12T15:15:07.437Z,64.30
2023-02-12T15:19:22.062Z,64.84
2023-02-12T15:23:33.460Z,64.94
2023-02-12T15:27:38.477Z,64.81
2023-02-12T15:31:41.636Z,64.97
2023-02-12T15:35:46.147Z,65.19
2023-02-12T15:39:49.305Z,65.38
2023-02-12T15:43:53.932Z,65.30
2023-02-12T15:48:01.834Z,65.50
2023-02-12T15:52:09.840Z,65.39
2023-02-12T15:56:16.045Z,65.59
2023-02-12T16:00:30.609Z,65.80
2023-02-12T16:04:37.752Z,66.09
2023-02-12T16:08:43.254Z,66.13
2023-02-12T16:12:47.369Z,66.20
2023-02-12T16:17:00.232Z,66.17
2023-02-12T16:21:05.692Z,66.21
2023-02-12T16:25:18.117Z,66.37
2023-02-12T16:29:21.808Z,66.21
2023-02-12T16:33:44.988Z,66.56
2023-02-12T16:37:50.222Z,66.25
2023-02-12T16:41:57.135Z,66.62
2023-02-12T16:46:06.842Z,66.82
2023-02-12T16:50:17.753Z,66.60
2023-02-12T16:54:30.104Z,66.55
2023-02-12T16:58:33.156Z,66.60
2023-02-12T17:02:37.384Z,66.81
2023-02-12T17:06:41.946Z,66.70
2023-02-12T17:10:45.587Z,66.89
2023-02-12T17:14:48.747Z,66.60
2023-02-12T17:18:51.855Z,66.59
2023-02-12T17:22:59.470Z,66.61
2023-02-12T17:27:03.332Z,66.60
2023-02-12T17:31:07.253Z,66.75
2023-02-12T17:35:10.929Z,67.19
2023-02-12T17:39:16.951Z,67.14
2023-02-12T17:43:20.227Z,67.07
2023-02-12T17:47:23.407Z,67.35
2023-02-12T17:51:26.918Z,67.48
2023-02-12T17:55:31.411Z,67.41
2023-02-12T17:59:34.879Z,67.35
2023-02-12T18:03:38.494Z,67.45
2023-02-12T18:07:42.080Z,67.40
2023-02-12T18:11:46.531Z,67.35
2023-02-12T18:15:49.981Z,67.47
2023-02-12T18:19:53.955Z,67.76
2023-02-12T18:23:57.448Z,67.79
2023-02-12T18:28:02.499Z,67.42
2023-02-12T18:32:05.707Z,67.46
2023-02-12T18:36:10.560Z,67.64
2023-02-12T18:40:13.654Z,67.56
2023-02-12T18:44:23.035Z,67.71
2023-02-12T18:48:26.468Z,67.64
2023-02-12T18:52:29.489Z,67.69
2023-02-12T18:56:35.437Z,67.55
2023-02-12T19:00:40.134Z,67.54
2023-02-12T19:04:43.226Z,67.37
2023-02-12T19:08:46.554Z,67.03
2023-02-12T19:12:49.626Z,67.30
2023-02-12T19:16:54.344Z,67.11
2023-02-12T19:20:57.586Z,66.91
2023-02-12T19:25:02.764Z,67.16
2023-02-12T19:29:06.109Z,67.45
2023-02-12T19:33:10.606Z,67.42
2023-02-12T19:37:14.463Z,67.39
2023-02-12T19:41:19.679Z,67.59
2023-02-12T19:45:22.740Z,67.50
2023-02-12T19:49:30.380Z,67.37
2023-02-12T19:53:33.871Z,67.30
2023-02-12T19:57:38.646Z,67.46
2023-02-12T20:01:42.132Z,67.27
2023-02-12T20:05:51.972Z,67.37
2023-02-12T20:09:54.993Z,67.08
2023-02-12T20:13:58.381Z,67.38
2023-02-12T20:18:01.393Z,67.38
2023-02-12T20:22:05.904Z,67.13
2023-02-12T20:26:11.473Z,67.24
2023-02-12T20:30:15.899Z,67.39
2023-02-12T20:34:20.401Z,67.32
2023-02-12T20:38:25.057Z,67.42
2023-02-12T20:42:28.094Z,67.18
2023-02-12T20:46:31.349Z,67.42
2023-02-12T20:50:35.307Z,67.31
2023-02-12T20:54:39.725Z,67.32
2023-02-12T20:58:44.897Z,67.35
2023-02-12T21:02:48.037Z,67.41
2023-02-12T21:06:51.105Z,67.15
2023-02-12T21:11:01.365Z,67.23
2023-02-12T21:15:04.945Z,67.41
2023-02-12T21:19:08.548Z,67.42
2023-02-12T21:23:11.555Z,67.51
2023-02-12T21:27:16.113Z,67.19
2023-02-12T21:31:22.919Z,67.32
2023-02-12T21:35:26.302Z,67.56
2023-02-12T21:39:29.729Z,67.55
2023-02-12T21:43:34.416Z,67.44
2023-02-12T21:47:38.363Z,67.64
2023-02-12T21:51:43.581Z,67.55
2023-02-12T21:55:47.932Z,67.74
2023-02-12T21:59:52.419Z,67.85
2023-02-12T22:03:56.117Z,67.70
2023-02-12T22:07:59.148Z,67.76
2023-02-12T22:12:02.243Z,68.17
2023-02-12T22:16:11.496Z,68.17
2023-02-12T22:20:14.892Z,68.01
2023-02-12T22:24:18.718Z,68.09
2023-02-12T22:28:23.274Z,67.82
2023-02-12T22:32:28.629Z,67.78
2023-02-12T22:36:32.362Z,67.86
2023-02-12T22:40:35.357Z,68.15
2023-02-12T22:44:38.462Z,68.18
2023-02-12T22:48:43.073Z,67.98
2023-02-12T22:52:46.346Z,68.12
2023-02-12T22:56:52.148Z,68.08
2023-02-12T23:00:55.490Z,67.92
2023-02-12T23:05:00.250Z,68.23
2023-02-12T23:09:05.350Z,67.97
2023-02-12T23:13:09.417Z,68.19
2023-02-12T23:17:13.503Z,68.28
2023-02-12T23:21:18.399Z,68.18
2023-02-12T23:25:21.526Z,68.29
2023-02-12T23:29:24.675Z,68.78
2023-02-12T23:33:27.807Z,68.92
2023-02-12T23:37:32.288Z,68.93
2023-02-12T23:41:35.350Z,68.97
2023-02-12T23:45:38.484Z,69.42
2023-02-12T23:49:41.620Z,69.58
2023-02-12T23:53:46.183Z,69.29
2023-02-12T23:57:49.798Z,69.33
